Time;durP1;ratioP1;P1;durP2;ratioP2;P2;SDS_P1;SDS_P2;PMS_P1;PMS_P2;Temp;Humidity;BMP_temperature;BMP_pressure;BME280_temperature;BME280_humidity;BME280_pressure;Samples;Min_cycle;Max_cycle;Signal;HPM_P1;HPM_P2
2021/05/07 00:02:10;;;;;;;25.45;18.92;;;;;;;;;;5054759;28;20211;-56
2021/05/07 00:04:38;;;;;;;22.35;18.42;;;;;;;;;;5044344;28;20254;-53
2021/05/07 00:07:04;;;;;;;22.65;18.15;;;;;;;;;;5044755;28;20211;-55
2021/05/07 00:09:36;;;;;;;23.80;17.30;;;;;;;;;;5054737;28;20211;-56
2021/05/07 00:12:05;;;;;;;24.42;18.27;;;;;;;;;;5054912;28;20223;-49
2021/05/07 00:14:32;;;;;;;22.52;18.27;;;;;;;;;;5054537;28;20183;-51
2021/05/07 00:17:16;;;;;;;26.58;20.35;;;;;;;;;;5055101;28;20215;-49
2021/05/07 00:19:44;;;;;;;24.63;19.48;;;;;;;;;;5055090;28;20265;-53
2021/05/07 00:22:10;;;;;;;26.40;19.63;;;;;;;;;;5055175;28;20558;-52
2021/05/07 00:24:38;;;;;;;25.52;19.77;;;;;;;;;;5055482;28;20235;-54
2021/05/07 00:27:05;;;;;;;24.65;18.30;;;;;;;;;;5054817;28;20251;-53
2021/05/07 00:29:32;;;;;;;26.33;18.42;;;;;;;;;;5055455;28;20217;-54
2021/05/07 00:32:00;;;;;;;21.60;18.88;;;;;;;;;;5055273;28;20241;-49
2021/05/07 00:34:26;;;;;;;21.80;18.08;;;;;;;;;;5054560;28;20208;-52
2021/05/07 00:36:54;;;;;;;24.10;18.65;;;;;;;;;;5054907;28;20190;-49
2021/05/07 00:39:21;;;;;;;22.38;18.67;;;;;;;;;;5055237;28;20222;-46
2021/05/07 00:41:48;;;;;;;26.52;19.77;;;;;;;;;;5055511;28;20211;-48
2021/05/07 00:44:16;;;;;;;24.10;19.63;;;;;;;;;;5056691;28;20215;-48
2021/05/07 00:46:43;;;;;;;25.05;20.15;;;;;;;;;;5059057;28;20198;-43
2021/05/07 00:49:11;;;;;;;32.45;21.67;;;;;;;;;;5058924;28;20222;-46
2021/05/07 00:51:43;;;;;;;26.40;18.98;;;;;;;;;;5058951;28;20195;-48
2021/05/07 00:54:11;;;;;;;26.10;21.13;;;;;;;;;;5058391;28;20359;-48
2021/05/07 00:56:37;;;;;;;26.67;21.15;;;;;;;;;;5058487;28;20187;-48
2021/05/07 00:59:07;;;;;;;27.13;21.05;;;;;;;;;;5058430;28;20203;-48
2021/05/07 01:01:34;;;;;;;28.52;20.65;;;;;;;;;;5058257;28;20271;-53
2021/05/07 01:04:01;;;;;;;24.02;20.48;;;;;;;;;;5048880;28;20293;-47
2021/05/07 01:06:33;;;;;;;26.85;21.02;;;;;;;;;;5051166;28;20207;-51
2021/05/07 01:09:00;;;;;;;23.58;20.67;;;;;;;;;;5058526;28;20237;-52
2021/05/07 01:11:28;;;;;;;30.63;22.20;;;;;;;;;;5074958;28;20211;-55
2021/05/07 01:14:21;;;;;;;26.17;20.02;;;;;;;;;;5066262;28;20262;-52
2021/05/07 01:16:47;;;;;;;25.42;21.00;;;;;;;;;;5058229;28;20199;-51
2021/05/07 01:19:14;;;;;;;26.35;20.63;;;;;;;;;;5057716;28;20218;-56
2021/05/07 01:21:48;;;;;;;33.17;23.55;;;;;;;;;;5057983;28;20211;-52
2021/05/07 01:24:15;;;;;;;26.45;22.48;;;;;;;;;;5056148;28;20221;-53
2021/05/07 01:26:42;;;;;;;27.40;20.73;;;;;;;;;;5058452;28;20218;-51
2021/05/07 01:29:26;;;;;;;26.58;21.30;;;;;;;;;;5057902;28;20222;-57
2021/05/07 01:31:56;;;;;;;30.20;22.70;;;;;;;;;;5058437;28;20203;-49
2021/05/07 01:34:23;;;;;;;26.77;21.55;;;;;;;;;;5058075;28;20225;-52
2021/05/07 01:36:55;;;;;;;29.15;22.52;;;;;;;;;;5040618;28;20218;-54
2021/05/07 01:39:21;;;;;;;27.27;21.40;;;;;;;;;;5057102;28;20215;-50
2021/05/07 01:41:48;;;;;;;30.52;23.33;;;;;;;;;;5057974;28;20218;-53
2021/05/07 01:44:22;;;;;;;24.05;19.70;;;;;;;;;;5057506;28;20191;-57
2021/05/07 01:46:49;;;;;;;25.77;21.08;;;;;;;;;;5057896;28;20203;-48
2021/05/07 01:49:18;;;;;;;25.00;20.02;;;;;;;;;;5057856;28;20195;-48
2021/05/07 01:51:46;;;;;;;27.67;23.17;;;;;;;;;;5057946;28;20215;-55
2021/05/07 01:54:14;;;;;;;25.83;19.60;;;;;;;;;;5057495;28;20204;-54
2021/05/07 01:56:41;;;;;;;24.08;19.73;;;;;;;;;;5056332;28;20230;-56
2021/05/07 01:59:20;;;;;;;26.55;20.17;;;;;;;;;;5057690;28;20244;-48
2021/05/07 02:01:47;;;;;;;29.25;21.38;;;;;;;;;;5056278;28;20206;-51
2021/05/07 02:04:14;;;;;;;24.95;20.95;;;;;;;;;;5057340;28;20208;-54
2021/05/07 02:06:53;;;;;;;26.75;20.20;;;;;;;;;;5057696;28;20200;-50
2021/05/07 02:09:20;;;;;;;26.08;21.33;;;;;;;;;;5057928;28;20253;-57
2021/05/07 02:11:47;;;;;;;25.00;20.58;;;;;;;;;;5057787;28;20245;-52
2021/05/07 02:14:14;;;;;;;26.00;21.38;;;;;;;;;;5057576;28;20229;-51
2021/05/07 02:16:40;;;;;;;25.38;18.92;;;;;;;;;;5057167;28;20184;-48
2021/05/07 02:19:14;;;;;;;27.65;20.83;;;;;;;;;;5061332;28;20198;-53
2021/05/07 02:21:41;;;;;;;25.60;19.73;;;;;;;;;;5076594;28;20211;-52
2021/05/07 02:24:11;;;;;;;25.15;19.65;;;;;;;;;;5076883;28;20241;-46
2021/05/07 02:26:42;;;;;;;25.58;20.48;;;;;;;;;;5060318;28;20248;-52
2021/05/07 02:29:08;;;;;;;25.48;20.15;;;;;;;;;;5057346;28;20207;-47
2021/05/07 02:31:35;;;;;;;28.73;22.30;;;;;;;;;;5061189;28;20217;-48
2021/05/07 02:34:17;;;;;;;24.73;19.98;;;;;;;;;;5061625;28;20226;-54
2021/05/07 02:36:43;;;;;;;23.60;19.52;;;;;;;;;;5057632;28;20203;-49
2021/05/07 02:39:10;;;;;;;31.63;22.80;;;;;;;;;;5057367;28;20226;-53
2021/05/07 02:41:37;;;;;;;28.60;21.02;;;;;;;;;;5057128;28;20195;-51
2021/05/07 02:44:06;;;;;;;33.28;21.80;;;;;;;;;;5056513;28;20254;-52
2021/05/07 02:46:33;;;;;;;29.35;22.65;;;;;;;;;;5056723;28;20255;-54
2021/05/07 02:52:04;;;;;;;26.83;22.40;;;;;;;;;;5055449;28;20237;-50
2021/05/07 02:54:31;;;;;;;30.17;22.40;;;;;;;;;;5056612;28;20179;-52
2021/05/07 02:56:58;;;;;;;29.20;21.52;;;;;;;;;;5056587;28;20228;-46
2021/05/07 02:59:26;;;;;;;27.10;20.45;;;;;;;;;;5056416;28;20244;-52
2021/05/07 03:01:53;;;;;;;30.25;22.60;;;;;;;;;;5056507;28;20214;-52
2021/05/07 03:04:26;;;;;;;35.28;23.33;;;;;;;;;;5056461;28;20215;-57
2021/05/07 03:06:52;;;;;;;34.58;22.95;;;;;;;;;;5055687;28;20196;-52
2021/05/07 03:09:19;;;;;;;32.65;22.10;;;;;;;;;;5056184;28;20188;-51
2021/05/07 03:11:56;;;;;;;30.60;24.05;;;;;;;;;;5056447;28;20223;-55
2021/05/07 03:14:26;;;;;;;33.17;24.13;;;;;;;;;;5056140;28;20198;-56
2021/05/07 03:16:53;;;;;;;32.83;22.48;;;;;;;;;;5056159;28;20205;-57
2021/05/07 03:19:32;;;;;;;31.55;23.70;;;;;;;;;;5055650;28;20199;-54
2021/05/07 03:21:59;;;;;;;29.95;23.13;;;;;;;;;;5055809;28;20211;-50
2021/05/07 03:24:27;;;;;;;29.42;22.85;;;;;;;;;;5055623;28;20223;-55
2021/05/07 03:27:01;;;;;;;32.70;23.85;;;;;;;;;;5055802;28;20283;-51
2021/05/07 03:29:28;;;;;;;31.50;23.92;;;;;;;;;;5055454;28;20192;-56
2021/05/07 03:31:55;;;;;;;31.05;23.85;;;;;;;;;;5055389;28;20203;-53
2021/05/07 03:34:35;;;;;;;33.50;25.02;;;;;;;;;;5056248;28;20214;-54
2021/05/07 03:37:02;;;;;;;36.58;26.15;;;;;;;;;;5055553;28;20203;-54
2021/05/07 03:39:29;;;;;;;36.35;26.15;;;;;;;;;;5056124;28;20214;-54
2021/05/07 03:42:15;;;;;;;32.08;24.52;;;;;;;;;;5055692;28;20206;-51
2021/05/07 03:44:43;;;;;;;37.10;27.92;;;;;;;;;;5055588;28;20238;-54
2021/05/07 03:47:09;;;;;;;36.20;25.98;;;;;;;;;;5055980;28;20214;-52
2021/05/07 03:49:36;;;;;;;33.92;26.27;;;;;;;;;;5055920;28;20199;-50
2021/05/07 03:52:03;;;;;;;39.47;25.90;;;;;;;;;;5055282;28;20227;-52
2021/05/07 03:54:48;;;;;;;34.08;25.15;;;;;;;;;;5055325;28;20192;-46
2021/05/07 03:57:15;;;;;;;38.58;26.55;;;;;;;;;;5055541;28;20227;-55
2021/05/07 03:59:43;;;;;;;39.60;27.05;;;;;;;;;;5055616;28;20214;-53
2021/05/07 04:02:21;;;;;;;38.50;26.92;;;;;;;;;;5055131;28;20231;-54
2021/05/07 04:04:48;;;;;;;37.13;25.80;;;;;;;;;;5038187;28;20235;-57
2021/05/07 04:07:15;;;;;;;38.95;26.70;;;;;;;;;;5054751;28;20207;-52
2021/05/07 04:09:48;;;;;;;35.28;26.17;;;;;;;;;;5055252;28;20273;-54
2021/05/07 04:12:17;;;;;;;42.83;30.00;;;;;;;;;;5054115;28;20219;-54
2021/05/07 04:14:50;;;;;;;38.30;27.70;;;;;;;;;;5054265;28;20199;-53
2021/05/07 04:17:28;;;;;;;35.53;26.40;;;;;;;;;;5055265;28;20207;-54
2021/05/07 04:19:55;;;;;;;32.60;24.38;;;;;;;;;;5056978;28;20370;-57
2021/05/07 04:22:22;;;;;;;35.15;25.58;;;;;;;;;;5059343;28;20204;-53
2021/05/07 04:24:49;;;;;;;36.42;24.92;;;;;;;;;;5059074;28;20226;-55
2021/05/07 04:27:16;;;;;;;42.60;25.55;;;;;;;;;;5059577;28;20191;-48
2021/05/07 04:29:43;;;;;;;37.65;27.73;;;;;;;;;;5058388;28;20208;-57
2021/05/07 04:32:38;;;;;;;36.45;26.48;;;;;;;;;;5058611;28;20196;-56
2021/05/07 04:35:08;;;;;;;35.75;26.33;;;;;;;;;;5058828;28;20223;-54
2021/05/07 04:37:35;;;;;;;32.55;25.08;;;;;;;;;;5059117;28;20210;-51
2021/05/07 04:40:02;;;;;;;34.63;25.45;;;;;;;;;;5058190;28;20211;-53
2021/05/07 04:42:30;;;;;;;36.85;25.75;;;;;;;;;;5058898;28;20190;-52
2021/05/07 04:45:10;;;;;;;33.13;25.40;;;;;;;;;;5057775;28;20221;-58
2021/05/07 04:47:37;;;;;;;31.30;22.80;;;;;;;;;;5041305;28;20324;-52
2021/05/07 04:50:04;;;;;;;30.48;23.90;;;;;;;;;;5037995;28;20239;-54
2021/05/07 04:52:33;;;;;;;36.65;26.10;;;;;;;;;;5042732;28;20250;-48
2021/05/07 04:54:59;;;;;;;33.08;25.58;;;;;;;;;;5057991;28;20216;-52
2021/05/07 04:57:35;;;;;;;35.53;23.60;;;;;;;;;;5058476;28;20184;-60
2021/05/07 05:00:02;;;;;;;33.92;23.58;;;;;;;;;;5058039;28;20211;-54
2021/05/07 05:02:29;;;;;;;31.58;21.65;;;;;;;;;;5057459;28;20203;-54
2021/05/07 05:04:57;;;;;;;29.65;21.60;;;;;;;;;;5057616;28;20218;-57
2021/05/07 05:07:24;;;;;;;30.52;23.70;;;;;;;;;;5037890;28;20242;-55
2021/05/07 05:09:52;;;;;;;35.88;24.80;;;;;;;;;;5056837;28;20299;-55
2021/05/07 05:12:56;;;;;;;30.98;23.00;;;;;;;;;;5057085;28;20286;-50
2021/05/07 05:15:23;;;;;;;70.53;25.08;;;;;;;;;;5055277;28;20645;-53
2021/05/07 05:17:50;;;;;;;32.33;22.73;;;;;;;;;;5057321;28;20226;-52
2021/05/07 05:20:17;;;;;;;33.15;23.90;;;;;;;;;;5057408;28;20203;-52
2021/05/07 05:22:45;;;;;;;27.80;21.08;;;;;;;;;;5056112;28;20207;-57
2021/05/07 05:25:38;;;;;;;32.25;21.90;;;;;;;;;;5047129;28;20306;-54
2021/05/07 05:28:05;;;;;;;28.92;22.58;;;;;;;;;;5053947;28;20327;-53
2021/05/07 05:30:32;;;;;;;33.05;22.27;;;;;;;;;;5054765;28;20207;-56
2021/05/07 05:32:59;;;;;;;27.67;21.50;;;;;;;;;;5054812;28;20218;-47
2021/05/07 05:35:26;;;;;;;27.80;19.95;;;;;;;;;;5054861;28;20204;-55
2021/05/07 05:38:03;;;;;;;30.17;21.67;;;;;;;;;;5056178;28;20204;-51
2021/05/07 05:40:31;;;;;;;30.08;22.42;;;;;;;;;;5039470;28;20196;-51
2021/05/07 05:42:58;;;;;;;27.00;21.27;;;;;;;;;;5056682;28;20208;-59
2021/05/07 05:45:42;;;;;;;27.85;21.23;;;;;;;;;;5056309;28;20255;-61
2021/05/07 05:48:12;;;;;;;34.17;21.93;;;;;;;;;;5051771;28;20215;-52
2021/05/07 05:50:41;;;;;;;30.73;20.90;;;;;;;;;;5056759;28;20460;-57
2021/05/07 05:53:09;;;;;;;26.50;21.63;;;;;;;;;;5047115;28;20470;-54
2021/05/07 05:55:38;;;;;;;28.70;22.08;;;;;;;;;;5054572;28;20207;-53
2021/05/07 05:58:06;;;;;;;30.90;21.80;;;;;;;;;;5071005;28;20282;-52
2021/05/07 06:00:47;;;;;;;30.47;22.40;;;;;;;;;;5054909;28;20603;-56
2021/05/07 06:03:14;;;;;;;32.53;24.50;;;;;;;;;;5043331;28;20460;-54
2021/05/07 06:05:41;;;;;;;37.80;24.00;;;;;;;;;;5055001;28;20489;-56
2021/05/07 06:08:13;;;;;;;31.97;22.80;;;;;;;;;;5056576;28;20470;-52
2021/05/07 06:10:41;;;;;;;32.87;23.63;;;;;;;;;;5055506;28;20453;-57
2021/05/07 06:13:08;;;;;;;30.92;23.60;;;;;;;;;;5056543;28;20430;-53
2021/05/07 06:15:42;;;;;;;37.83;25.70;;;;;;;;;;5055102;28;20241;-54
2021/05/07 06:18:11;;;;;;;29.83;22.42;;;;;;;;;;5055073;28;20463;-56
2021/05/07 06:20:38;;;;;;;34.33;23.57;;;;;;;;;;5054945;28;20271;-54
2021/05/07 06:23:23;;;;;;;33.60;25.02;;;;;;;;;;5054783;28;20477;-52
2021/05/07 06:25:51;;;;;;;37.40;24.92;;;;;;;;;;5053912;28;20246;-55
2021/05/07 06:28:22;;;;;;;34.53;24.30;;;;;;;;;;5035417;28;20583;-61
2021/05/07 06:30:55;;;;;;;25.60;18.65;;;;;;;;;;5055123;28;20187;-54
2021/05/07 06:33:22;;;;;;;31.08;19.70;;;;;;;;;;5054301;28;20196;-55
2021/05/07 06:35:50;;;;;;;23.80;16.42;;;;;;;;;;5055706;28;20195;-56
2021/05/07 06:38:16;;;;;;;26.40;18.20;;;;;;;;;;5053708;28;20203;-55
2021/05/07 06:40:46;;;;;;;29.20;17.85;;;;;;;;;;5054584;28;20207;-57
2021/05/07 06:43:28;;;;;;;24.13;18.42;;;;;;;;;;5044224;28;20195;-57
2021/05/07 06:45:55;;;;;;;23.33;16.85;;;;;;;;;;5053556;28;20237;-54
2021/05/07 06:48:22;;;;;;;21.90;16.40;;;;;;;;;;5053798;28;20199;-54
2021/05/07 06:50:48;;;;;;;24.17;15.60;;;;;;;;;;5054699;28;20198;-53
2021/05/07 06:53:16;;;;;;;20.58;14.98;;;;;;;;;;5054653;28;20371;-52
2021/05/07 06:55:43;;;;;;;18.73;14.77;;;;;;;;;;5054103;28;20210;-53
2021/05/07 06:58:31;;;;;;;21.63;14.95;;;;;;;;;;5039494;28;20200;-58
2021/05/07 07:00:57;;;;;;;21.95;13.60;;;;;;;;;;5044674;28;20211;-55
2021/05/07 07:03:24;;;;;;;19.08;12.77;;;;;;;;;;5053307;28;20211;-58
2021/05/07 07:05:51;;;;;;;15.80;11.98;;;;;;;;;;5054145;28;20250;-57
2021/05/07 07:08:18;;;;;;;20.58;16.38;;;;;;;;;;5049718;28;20213;-53
2021/05/07 07:10:45;;;;;;;19.00;11.55;;;;;;;;;;5053914;28;20203;-55
2021/05/07 07:13:13;;;;;;;14.77;11.02;;;;;;;;;;5054077;28;20207;-57
2021/05/07 07:15:44;;;;;;;14.75;11.38;;;;;;;;;;5053430;28;20375;-50
2021/05/07 07:18:20;;;;;;;15.63;11.10;;;;;;;;;;5054401;28;20222;-50
2021/05/07 07:20:52;;;;;;;15.43;10.80;;;;;;;;;;5050480;28;20191;-55
2021/05/07 07:23:19;;;;;;;16.83;11.82;;;;;;;;;;5053152;28;20222;-51
2021/05/07 07:25:50;;;;;;;19.98;11.10;;;;;;;;;;5053933;28;20231;-52
2021/05/07 07:28:18;;;;;;;14.38;11.57;;;;;;;;;;5053012;28;20261;-53
2021/05/07 07:30:45;;;;;;;18.23;12.00;;;;;;;;;;5053055;28;20273;-55
2021/05/07 07:33:15;;;;;;;15.02;11.30;;;;;;;;;;5051154;28;20195;-59
2021/05/07 07:35:42;;;;;;;13.77;11.40;;;;;;;;;;5048293;28;20216;-52
2021/05/07 07:38:22;;;;;;;17.77;13.35;;;;;;;;;;5048858;28;20212;-57
2021/05/07 07:41:07;;;;;;;16.60;13.20;;;;;;;;;;5054953;28;20198;-54
2021/05/07 07:43:34;;;;;;;22.10;15.30;;;;;;;;;;5051738;28;20394;-58
2021/05/07 07:46:02;;;;;;;19.35;13.88;;;;;;;;;;5053172;28;20223;-56
2021/05/07 07:48:57;;;;;;;19.92;14.55;;;;;;;;;;5054417;28;20214;-58
2021/05/07 07:51:29;;;;;;;18.52;15.23;;;;;;;;;;5053141;28;20267;-53
2021/05/07 07:53:58;;;;;;;22.08;15.05;;;;;;;;;;5048020;28;20199;-58
2021/05/07 07:56:44;;;;;;;18.73;14.20;;;;;;;;;;5058322;28;20237;-53
2021/05/07 07:59:11;;;;;;;25.30;17.20;;;;;;;;;;5056707;28;20242;-59
2021/05/07 08:01:42;;;;;;;23.38;17.13;;;;;;;;;;5057730;28;20210;-55
2021/05/07 08:04:08;;;;;;;23.48;18.70;;;;;;;;;;5057640;28;20206;-53
2021/05/07 08:06:35;;;;;;;26.17;17.50;;;;;;;;;;5057334;28;20215;-55
2021/05/07 08:09:21;;;;;;;21.20;17.00;;;;;;;;;;5057247;28;20211;-53
2021/05/07 08:11:50;;;;;;;25.77;17.67;;;;;;;;;;5056513;28;20438;-59
2021/05/07 08:14:17;;;;;;;27.48;18.02;;;;;;;;;;5057040;28;20199;-57
2021/05/07 08:16:45;;;;;;;24.77;17.65;;;;;;;;;;5056630;28;20298;-54
2021/05/07 08:19:12;;;;;;;18.55;13.80;;;;;;;;;;5038061;28;20218;-52
2021/05/07 08:21:40;;;;;;;10.57;8.48;;;;;;;;;;5053020;28;20195;-55
2021/05/07 08:24:26;;;;;;;10.07;7.57;;;;;;;;;;5056462;28;20234;-53
2021/05/07 08:26:52;;;;;;;11.65;7.97;;;;;;;;;;5039732;28;20614;-47
2021/05/07 08:29:19;;;;;;;9.02;6.30;;;;;;;;;;5056649;28;20195;-48
2021/05/07 08:32:09;;;;;;;12.13;8.98;;;;;;;;;;5039367;28;20247;-53
2021/05/07 08:34:36;;;;;;;15.65;11.05;;;;;;;;;;5036998;28;20203;-57
2021/05/07 08:37:18;;;;;;;12.88;10.00;;;;;;;;;;5044376;28;20215;-54
2021/05/07 08:42:59;;;;;;;14.27;11.23;;;;;;;;;;5058311;28;20187;-51
2021/05/07 08:45:50;;;;;;;17.38;12.02;;;;;;;;;;5050066;28;20279;-51
2021/05/07 08:48:18;;;;;;;31.70;15.10;;;;;;;;;;5044081;28;20192;-56
2021/05/07 08:50:48;;;;;;;26.75;16.08;;;;;;;;;;5047125;28;20219;-49
2021/05/07 08:53:22;;;;;;;25.90;16.00;;;;;;;;;;5040869;28;20208;-51
2021/05/07 08:55:49;;;;;;;23.55;17.02;;;;;;;;;;5057705;28;20191;-51
2021/05/07 08:58:17;;;;;;;18.25;13.68;;;;;;;;;;5054741;28;20226;-51
2021/05/07 09:00:44;;;;;;;14.77;10.30;;;;;;;;;;5062143;28;20227;-55
2021/05/07 09:03:12;;;;;;;16.27;10.20;;;;;;;;;;5068419;28;20259;-52
2021/05/07 09:05:45;;;;;;;14.63;9.63;;;;;;;;;;5048500;28;20224;-53
2021/05/07 09:08:30;;;;;;;8.00;7.00;;;;;;;;;;5057366;28;20405;-51
2021/05/07 09:11:00;;;;;;;13.48;8.07;;;;;;;;;;5040130;28;20254;-58
2021/05/07 09:13:27;;;;;;;8.10;6.25;;;;;;;;;;5057068;28;20195;-52
2021/05/07 09:15:54;;;;;;;9.43;7.60;;;;;;;;;;5059825;28;20191;-55
2021/05/07 09:18:21;;;;;;;7.88;6.82;;;;;;;;;;5059514;28;20210;-52
2021/05/07 09:20:50;;;;;;;9.35;8.00;;;;;;;;;;5056841;28;20218;-57
2021/05/07 09:23:17;;;;;;;13.63;7.85;;;;;;;;;;5043092;28;20266;-52
2021/05/07 09:25:46;;;;;;;8.88;7.60;;;;;;;;;;5056526;28;20247;-58
2021/05/07 09:28:13;;;;;;;11.02;8.38;;;;;;;;;;5057371;28;20265;-52
2021/05/07 09:30:42;;;;;;;11.82;10.57;;;;;;;;;;5057055;28;20269;-58
2021/05/07 09:33:19;;;;;;;12.55;10.40;;;;;;;;;;5054359;28;20199;-53
2021/05/07 09:35:50;;;;;;;17.45;10.48;;;;;;;;;;5056232;28;20191;-56
2021/05/07 09:38:51;;;;;;;11.23;8.63;;;;;;;;;;5062182;28;20196;-55
2021/05/07 09:41:19;;;;;;;9.77;7.47;;;;;;;;;;5057728;28;20233;-53
2021/05/07 09:43:47;;;;;;;9.32;6.68;;;;;;;;;;5057319;28;20211;-47
2021/05/07 09:46:16;;;;;;;9.68;7.47;;;;;;;;;;5046836;28;20234;-54
2021/05/07 09:49:02;;;;;;;8.63;6.47;;;;;;;;;;5049409;28;20206;-45
2021/05/07 09:51:40;;;;;;;7.75;5.75;;;;;;;;;;5057143;28;20203;-57
2021/05/07 09:54:08;;;;;;;6.75;5.15;;;;;;;;;;5053001;28;20263;-53
2021/05/07 09:56:36;;;;;;;7.80;5.28;;;;;;;;;;5055851;28;20210;-55
2021/05/07 09:59:04;;;;;;;8.77;5.93;;;;;;;;;;5053907;28;20297;-56
2021/05/07 10:01:48;;;;;;;7.35;5.97;;;;;;;;;;5054639;28;20239;-56
2021/05/07 10:04:15;;;;;;;7.93;5.13;;;;;;;;;;5046471;28;20235;-49
2021/05/07 10:06:45;;;;;;;7.68;5.13;;;;;;;;;;5054062;28;20227;-58
2021/05/07 10:09:22;;;;;;;8.02;5.30;;;;;;;;;;5047244;28;20195;-57
2021/05/07 10:11:50;;;;;;;7.03;5.45;;;;;;;;;;5050900;28;20187;-53
2021/05/07 10:14:17;;;;;;;7.32;5.07;;;;;;;;;;5056674;28;20207;-56
2021/05/07 10:16:51;;;;;;;9.75;5.13;;;;;;;;;;5050340;28;20267;-49
2021/05/07 10:19:18;;;;;;;11.52;6.32;;;;;;;;;;5056018;28;20207;-54
2021/05/07 10:21:47;;;;;;;11.57;6.47;;;;;;;;;;5056169;28;20211;-60
2021/05/07 10:24:15;;;;;;;12.20;5.95;;;;;;;;;;5056218;28;20223;-54
2021/05/07 10:26:43;;;;;;;7.25;5.65;;;;;;;;;;5056270;28;20246;-56
2021/05/07 10:29:21;;;;;;;7.72;5.65;;;;;;;;;;5039117;28;20187;-51
2021/05/07 10:31:50;;;;;;;10.40;6.35;;;;;;;;;;5056034;28;20207;-55
2021/05/07 10:34:29;;;;;;;9.10;6.28;;;;;;;;;;5055419;28;20255;-57
2021/05/07 10:36:57;;;;;;;12.32;6.75;;;;;;;;;;5054906;28;20197;-56
2021/05/07 10:39:26;;;;;;;10.05;6.00;;;;;;;;;;5054927;28;20210;-54
2021/05/07 10:41:54;;;;;;;10.63;5.55;;;;;;;;;;5056139;28;20188;-57
2021/05/07 10:44:42;;;;;;;5.97;3.83;;;;;;;;;;5055302;28;20207;-56
2021/05/07 10:47:10;;;;;;;5.90;3.47;;;;;;;;;;5056180;28;20199;-56
2021/05/07 10:49:44;;;;;;;6.10;3.55;;;;;;;;;;5055631;28;20207;-53
2021/05/07 10:52:12;;;;;;;6.93;4.35;;;;;;;;;;5056126;28;20207;-55
2021/05/07 10:54:41;;;;;;;4.93;3.13;;;;;;;;;;5055730;28;20211;-59
2021/05/07 10:57:18;;;;;;;4.15;2.75;;;;;;;;;;5056057;28;20309;-57
2021/05/07 10:59:53;;;;;;;5.25;2.50;;;;;;;;;;5056373;28;20191;-52
2021/05/07 11:02:25;;;;;;;5.00;2.67;;;;;;;;;;5055792;28;20225;-51
2021/05/07 11:04:55;;;;;;;3.25;2.30;;;;;;;;;;5056711;28;20231;-57
2021/05/07 11:13:06;;;;;;;2.90;1.77;;;;;;;;;;5064726;28;20241;-55
2021/05/07 11:15:35;;;;;;;4.40;2.60;;;;;;;;;;5055485;28;20199;-47
2021/05/07 11:18:03;;;;;;;3.80;2.30;;;;;;;;;;5056062;28;20458;-56
2021/05/07 11:20:38;;;;;;;5.05;2.47;;;;;;;;;;5075120;28;20190;-59
2021/05/07 11:23:06;;;;;;;8.50;3.20;;;;;;;;;;5060600;28;20207;-52
2021/05/07 11:25:38;;;;;;;6.55;3.10;;;;;;;;;;5055854;28;20227;-57
2021/05/07 11:28:13;;;;;;;7.50;3.15;;;;;;;;;;5055685;28;20195;-50
2021/05/07 11:30:51;;;;;;;5.45;2.40;;;;;;;;;;5051693;28;20187;-55
2021/05/07 11:33:31;;;;;;;4.20;2.50;;;;;;;;;;5053977;28;20195;-48
2021/05/07 11:36:19;;;;;;;5.23;2.27;;;;;;;;;;5059796;28;20454;-59
2021/05/07 11:38:49;;;;;;;7.93;3.00;;;;;;;;;;5033024;28;20485;-54
2021/05/07 11:41:23;;;;;;;4.10;2.40;;;;;;;;;;5052639;28;20458;-55
2021/05/07 11:43:50;;;;;;;6.00;2.63;;;;;;;;;;5052985;28;20489;-60
2021/05/07 11:46:18;;;;;;;4.77;2.43;;;;;;;;;;5053647;28;20485;-51
2021/05/07 11:49:05;;;;;;;7.90;2.87;;;;;;;;;;5054241;28;20484;-57
2021/05/07 11:51:47;;;;;;;3.67;2.20;;;;;;;;;;5045456;28;20450;-59
2021/05/07 11:54:14;;;;;;;3.67;2.13;;;;;;;;;;5052391;28;20458;-49
2021/05/07 11:56:43;;;;;;;5.50;2.77;;;;;;;;;;5042720;28;20470;-54
2021/05/07 11:59:12;;;;;;;5.43;1.93;;;;;;;;;;5053402;28;20449;-57
2021/05/07 12:01:48;;;;;;;4.83;2.60;;;;;;;;;;5055403;28;20505;-50
2021/05/07 12:04:17;;;;;;;4.00;2.20;;;;;;;;;;5055104;28;20453;-54
2021/05/07 12:06:44;;;;;;;7.17;3.10;;;;;;;;;;5055494;28;20481;-61
2021/05/07 12:09:12;;;;;;;5.23;2.70;;;;;;;;;;5070034;28;20457;-47
2021/05/07 12:11:38;;;;;;;4.50;2.53;;;;;;;;;;5057532;28;20470;-54
2021/05/07 12:14:09;;;;;;;4.53;2.13;;;;;;;;;;5055281;28;20454;-59
2021/05/07 12:16:38;;;;;;;4.00;2.10;;;;;;;;;;5050744;28;20463;-61
2021/05/07 12:19:06;;;;;;;3.57;1.77;;;;;;;;;;5045033;28;20497;-62
2021/05/07 12:21:40;;;;;;;4.23;2.20;;;;;;;;;;5054614;28;20516;-54
2021/05/07 12:24:12;;;;;;;4.97;2.07;;;;;;;;;;5053697;28;20454;-54
2021/05/07 12:26:48;;;;;;;4.70;2.60;;;;;;;;;;5044685;28;20491;-54
2021/05/07 12:29:14;;;;;;;5.50;2.50;;;;;;;;;;5041463;28;20632;-56
2021/05/07 12:31:41;;;;;;;4.47;1.90;;;;;;;;;;5055045;28;20485;-57
2021/05/07 12:34:21;;;;;;;3.63;2.00;;;;;;;;;;5054975;28;20426;-50
2021/05/07 12:37:17;;;;;;;7.00;2.70;;;;;;;;;;5049181;28;20537;-55
2021/05/07 12:39:44;;;;;;;3.03;2.00;;;;;;;;;;5054821;28;20450;-49
2021/05/07 12:42:11;;;;;;;3.60;1.77;;;;;;;;;;5058839;28;20458;-56
2021/05/07 12:44:41;;;;;;;3.87;1.67;;;;;;;;;;5057840;28;20838;-57
2021/05/07 12:47:10;;;;;;;4.13;2.70;;;;;;;;;;5059002;28;20556;-53
2021/05/07 12:49:40;;;;;;;6.77;2.27;;;;;;;;;;5059551;28;20466;-55
2021/05/07 12:52:28;;;;;;;5.33;2.40;;;;;;;;;;5053974;28;20466;-60
2021/05/07 12:54:55;;;;;;;3.70;2.73;;;;;;;;;;5054622;28;20522;-57
2021/05/07 12:57:24;;;;;;;4.97;2.80;;;;;;;;;;5058551;28;20445;-52
2021/05/07 12:59:59;;;;;;;4.30;2.60;;;;;;;;;;5058675;28;20461;-59
2021/05/07 13:02:26;;;;;;;4.93;3.27;;;;;;;;;;5046752;28;20503;-54
2021/05/07 13:05:16;;;;;;;7.37;3.17;;;;;;;;;;5056476;28;20438;-57
2021/05/07 13:07:45;;;;;;;4.40;2.40;;;;;;;;;;5057042;28;20456;-61
2021/05/07 13:10:55;;;;;;;4.83;2.30;;;;;;;;;;5057387;28;20486;-57
2021/05/07 13:13:23;;;;;;;5.07;2.30;;;;;;;;;;5058379;28;20478;-61
2021/05/07 13:16:08;;;;;;;6.13;2.50;;;;;;;;;;5056995;28;20541;-56
2021/05/07 13:18:36;;;;;;;2.70;1.60;;;;;;;;;;5048318;28;20450;-49
2021/05/07 13:21:10;;;;;;;4.50;2.27;;;;;;;;;;5058642;28;20441;-61
2021/05/07 13:23:37;;;;;;;6.30;3.07;;;;;;;;;;5058672;28;20442;-57
2021/05/07 13:26:05;;;;;;;7.33;3.40;;;;;;;;;;5039709;28;20500;-46
2021/05/07 13:28:34;;;;;;;4.80;2.43;;;;;;;;;;5058955;28;20911;-57
2021/05/07 13:31:06;;;;;;;5.03;2.40;;;;;;;;;;5057001;28;20458;-55
2021/05/07 13:33:41;;;;;;;3.63;2.20;;;;;;;;;;5055520;28;20446;-50
2021/05/07 13:36:12;;;;;;;4.73;2.20;;;;;;;;;;5022591;28;20512;-60
2021/05/07 13:38:45;;;;;;;4.40;2.67;;;;;;;;;;5058776;28;20453;-61
2021/05/07 13:41:13;;;;;;;4.03;3.30;;;;;;;;;;5057751;28;20472;-55
2021/05/07 13:43:40;;;;;;;4.53;2.30;;;;;;;;;;5053292;28;20433;-57
2021/05/07 13:46:09;;;;;;;6.80;3.50;;;;;;;;;;5053051;28;20527;-58
2021/05/07 13:48:37;;;;;;;3.60;2.37;;;;;;;;;;5023337;28;20443;-56
2021/05/07 13:51:14;;;;;;;8.20;4.57;;;;;;;;;;5035940;28;20442;-58
2021/05/07 13:53:41;;;;;;;3.73;3.07;;;;;;;;;;5045660;28;20489;-54
2021/05/07 13:56:08;;;;;;;6.73;3.57;;;;;;;;;;5049941;28;20469;-57
2021/05/07 13:58:44;;;;;;;6.90;4.10;;;;;;;;;;5057263;28;20426;-57
2021/05/07 14:01:13;;;;;;;4.07;3.00;;;;;;;;;;5056050;28;20466;-55
2021/05/07 14:03:40;;;;;;;5.73;3.70;;;;;;;;;;5048659;28;20493;-58
2021/05/07 14:06:12;;;;;;;4.60;2.80;;;;;;;;;;5036661;28;20494;-54
2021/05/07 14:08:40;;;;;;;4.40;3.00;;;;;;;;;;5054357;28;20422;-56
2021/05/07 14:11:07;;;;;;;4.63;2.57;;;;;;;;;;5056180;28;20464;-58
2021/05/07 14:13:48;;;;;;;6.20;2.80;;;;;;;;;;5056438;28;20484;-58
2021/05/07 14:16:15;;;;;;;4.67;2.90;;;;;;;;;;5056173;28;20450;-57
2021/05/07 14:18:44;;;;;;;5.67;2.83;;;;;;;;;;5056077;28;20519;-59
2021/05/07 14:21:19;;;;;;;6.57;2.77;;;;;;;;;;5046567;28;20572;-53
2021/05/07 14:23:52;;;;;;;5.37;4.30;;;;;;;;;;5054272;28;20508;-56
2021/05/07 14:26:22;;;;;;;8.33;4.77;;;;;;;;;;5036694;28;20487;-47
2021/05/07 14:28:48;;;;;;;5.20;3.70;;;;;;;;;;5040839;28;20734;-52
2021/05/07 14:31:15;;;;;;;4.70;3.40;;;;;;;;;;5051855;28;20485;-57
2021/05/07 14:33:45;;;;;;;11.40;5.17;;;;;;;;;;5055929;28;20458;-59
2021/05/07 14:36:13;;;;;;;6.90;3.93;;;;;;;;;;5038070;28;20457;-50
2021/05/07 14:38:44;;;;;;;7.73;4.07;;;;;;;;;;5054650;28;20454;-52
2021/05/07 14:41:13;;;;;;;4.80;3.10;;;;;;;;;;5053157;28;20470;-52
2021/05/07 14:43:40;;;;;;;4.10;3.30;;;;;;;;;;5049597;28;20508;-53
2021/05/07 14:46:07;;;;;;;6.80;4.60;;;;;;;;;;5034640;28;20491;-55
2021/05/07 14:48:34;;;;;;;5.27;3.30;;;;;;;;;;5034127;28;20463;-57
2021/05/07 14:51:01;;;;;;;5.17;3.60;;;;;;;;;;5050571;28;20446;-60
2021/05/07 14:53:45;;;;;;;7.60;5.30;;;;;;;;;;5052136;28;20461;-56
2021/05/07 14:56:24;;;;;;;10.90;5.93;;;;;;;;;;5057876;28;20510;-54
2021/05/07 14:59:10;;;;;;;8.70;4.70;;;;;;;;;;5053084;28;20508;-55
2021/05/07 15:01:39;;;;;;;5.60;4.03;;;;;;;;;;5049763;28;20470;-52